sensor_id;sensor_type;location;lat;lon;timestamp;P1;durP1;ratioP1;P2;durP2;ratioP2
41881;SDS011;27562;47.524;12.404;2023-05-07T00:01:08;2.83;;;1.10;;
41881;SDS011;27562;47.524;12.404;2023-05-07T00:03:34;2.42;;;0.90;;
41881;SDS011;27562;47.524;12.404;2023-05-07T00:05:59;2.75;;;1.23;;
41881;SDS011;27562;47.524;12.404;2023-05-07T00:08:25;2.97;;;1.10;;
41881;SDS011;27562;47.524;12.404;2023-05-07T00:10:50;1.83;;;1.10;;
41881;SDS011;27562;47.524;12.404;2023-05-07T00:13:16;4.43;;;1.27;;
41881;SDS011;27562;47.524;12.404;2023-05-07T00:15:42;2.42;;;1.10;;
41881;SDS011;27562;47.524;12.404;2023-05-07T00:18:07;2.97;;;1.30;;
41881;SDS011;27562;47.524;12.404;2023-05-07T00:20:33;1.98;;;1.10;;
41881;SDS011;27562;47.524;12.404;2023-05-07T00:22:59;1.80;;;1.20;;
41881;SDS011;27562;47.524;12.404;2023-05-07T00:25:24;1.73;;;1.15;;
41881;SDS011;27562;47.524;12.404;2023-05-07T00:27:50;2.40;;;1.30;;
41881;SDS011;27562;47.524;12.404;2023-05-07T00:30:16;2.30;;;1.20;;
41881;SDS011;27562;47.524;12.404;2023-05-07T00:32:41;3.58;;;1.40;;
41881;SDS011;27562;47.524;12.404;2023-05-07T00:35:10;2.05;;;1.30;;
41881;SDS011;27562;47.524;12.404;2023-05-07T00:37:36;4.53;;;1.00;;
41881;SDS011;27562;47.524;12.404;2023-05-07T00:40:01;2.67;;;1.25;;
41881;SDS011;27562;47.524;12.404;2023-05-07T00:42:29;2.33;;;1.02;;
41881;SDS011;27562;47.524;12.404;2023-05-07T00:44:57;2.88;;;1.27;;
41881;SDS011;27562;47.524;12.404;2023-05-07T00:47:23;2.75;;;1.25;;
41881;SDS011;27562;47.524;12.404;2023-05-07T00:49:50;2.00;;;1.30;;
41881;SDS011;27562;47.524;12.404;2023-05-07T00:52:16;2.88;;;1.60;;
41881;SDS011;27562;47.524;12.404;2023-05-07T00:54:44;4.60;;;1.77;;
41881;SDS011;27562;47.524;12.404;2023-05-07T00:57:10;2.85;;;1.50;;
41881;SDS011;27562;47.524;12.404;2023-05-07T00:59:36;3.25;;;1.60;;
41881;SDS011;27562;47.524;12.404;2023-05-07T01:02:03;1.73;;;1.17;;
41881;SDS011;27562;47.524;12.404;2023-05-07T01:04:28;2.03;;;1.45;;
41881;SDS011;27562;47.524;12.404;2023-05-07T01:06:55;1.95;;;1.25;;
41881;SDS011;27562;47.524;12.404;2023-05-07T01:09:22;2.28;;;1.20;;
41881;SDS011;27562;47.524;12.404;2023-05-07T01:11:49;3.35;;;1.50;;
41881;SDS011;27562;47.524;12.404;2023-05-07T01:14:16;2.53;;;1.30;;
41881;SDS011;27562;47.524;12.404;2023-05-07T01:16:42;2.25;;;1.30;;
41881;SDS011;27562;47.524;12.404;2023-05-07T01:19:08;2.30;;;1.23;;
41881;SDS011;27562;47.524;12.404;2023-05-07T01:21:36;2.08;;;1.13;;
41881;SDS011;27562;47.524;12.404;2023-05-07T01:24:03;2.80;;;1.25;;
41881;SDS011;27562;47.524;12.404;2023-05-07T01:26:30;2.97;;;1.40;;
41881;SDS011;27562;47.524;12.404;2023-05-07T01:28:56;3.95;;;1.48;;
41881;SDS011;27562;47.524;12.404;2023-05-07T01:31:21;2.25;;;1.17;;
41881;SDS011;27562;47.524;12.404;2023-05-07T01:33:49;3.63;;;1.50;;
41881;SDS011;27562;47.524;12.404;2023-05-07T01:36:15;2.55;;;1.40;;
41881;SDS011;27562;47.524;12.404;2023-05-07T01:38:43;2.05;;;1.20;;
41881;SDS011;27562;47.524;12.404;2023-05-07T01:41:09;3.97;;;1.40;;
41881;SDS011;27562;47.524;12.404;2023-05-07T01:43:36;2.05;;;1.15;;
41881;SDS011;27562;47.524;12.404;2023-05-07T01:46:02;2.10;;;1.40;;
41881;SDS011;27562;47.524;12.404;2023-05-07T01:48:28;2.00;;;1.33;;
41881;SDS011;27562;47.524;12.404;2023-05-07T01:50:55;4.28;;;1.50;;
41881;SDS011;27562;47.524;12.404;2023-05-07T01:53:20;2.25;;;1.27;;
41881;SDS011;27562;47.524;12.404;2023-05-07T01:55:46;3.13;;;1.40;;
41881;SDS011;27562;47.524;12.404;2023-05-07T01:58:12;2.20;;;1.38;;
41881;SDS011;27562;47.524;12.404;2023-05-07T02:00:37;2.50;;;1.48;;
41881;SDS011;27562;47.524;12.404;2023-05-07T02:03:03;2.25;;;1.48;;
41881;SDS011;27562;47.524;12.404;2023-05-07T02:05:29;2.72;;;1.67;;
41881;SDS011;27562;47.524;12.404;2023-05-07T02:07:55;2.25;;;1.00;;
41881;SDS011;27562;47.524;12.404;2023-05-07T02:10:20;1.98;;;1.30;;
41881;SDS011;27562;47.524;12.404;2023-05-07T02:12:46;3.50;;;1.52;;
41881;SDS011;27562;47.524;12.404;2023-05-07T02:15:12;2.30;;;1.40;;
41881;SDS011;27562;47.524;12.404;2023-05-07T02:18:20;2.47;;;1.40;;
41881;SDS011;27562;47.524;12.404;2023-05-07T02:20:31;2.42;;;1.48;;
41881;SDS011;27562;47.524;12.404;2023-05-07T02:22:56;2.00;;;1.25;;
41881;SDS011;27562;47.524;12.404;2023-05-07T02:25:22;2.85;;;1.45;;
41881;SDS011;27562;47.524;12.404;2023-05-07T02:27:48;2.17;;;1.27;;
41881;SDS011;27562;47.524;12.404;2023-05-07T02:30:14;2.22;;;1.20;;
41881;SDS011;27562;47.524;12.404;2023-05-07T02:32:40;1.65;;;1.13;;
41881;SDS011;27562;47.524;12.404;2023-05-07T02:35:06;3.38;;;1.52;;
41881;SDS011;27562;47.524;12.404;2023-05-07T02:37:32;2.42;;;1.42;;
41881;SDS011;27562;47.524;12.404;2023-05-07T02:39:57;2.40;;;1.30;;
41881;SDS011;27562;47.524;12.404;2023-05-07T02:42:23;5.95;;;2.10;;
41881;SDS011;27562;47.524;12.404;2023-05-07T02:44:48;7.28;;;3.80;;
41881;SDS011;27562;47.524;12.404;2023-05-07T02:47:14;7.35;;;3.75;;
41881;SDS011;27562;47.524;12.404;2023-05-07T02:49:40;5.55;;;2.90;;
41881;SDS011;27562;47.524;12.404;2023-05-07T02:52:06;3.85;;;2.20;;
41881;SDS011;27562;47.524;12.404;2023-05-07T02:54:32;3.95;;;1.70;;
41881;SDS011;27562;47.524;12.404;2023-05-07T02:56:58;2.80;;;1.30;;
41881;SDS011;27562;47.524;12.404;2023-05-07T02:59:25;2.58;;;1.38;;
41881;SDS011;27562;47.524;12.404;2023-05-07T03:01:51;3.10;;;1.70;;
41881;SDS011;27562;47.524;12.404;2023-05-07T03:04:17;4.32;;;1.85;;
41881;SDS011;27562;47.524;12.404;2023-05-07T03:06:43;2.72;;;1.40;;
41881;SDS011;27562;47.524;12.404;2023-05-07T03:09:08;2.28;;;1.50;;
41881;SDS011;27562;47.524;12.404;2023-05-07T03:11:34;3.45;;;1.40;;
41881;SDS011;27562;47.524;12.404;2023-05-07T03:14:00;2.88;;;1.23;;
41881;SDS011;27562;47.524;12.404;2023-05-07T03:16:26;3.10;;;1.40;;
41881;SDS011;27562;47.524;12.404;2023-05-07T03:18:52;2.10;;;1.50;;
41881;SDS011;27562;47.524;12.404;2023-05-07T03:21:18;3.53;;;1.58;;
41881;SDS011;27562;47.524;12.404;2023-05-07T03:23:44;2.15;;;1.30;;
41881;SDS011;27562;47.524;12.404;2023-05-07T03:26:10;2.03;;;1.20;;
41881;SDS011;27562;47.524;12.404;2023-05-07T03:28:36;2.15;;;1.17;;
41881;SDS011;27562;47.524;12.404;2023-05-07T03:31:02;1.75;;;1.30;;
41881;SDS011;27562;47.524;12.404;2023-05-07T03:33:27;1.85;;;1.23;;
41881;SDS011;27562;47.524;12.404;2023-05-07T03:35:53;3.28;;;1.38;;
41881;SDS011;27562;47.524;12.404;2023-05-07T03:38:19;1.85;;;1.23;;
41881;SDS011;27562;47.524;12.404;2023-05-07T03:40:45;2.30;;;1.30;;
41881;SDS011;27562;47.524;12.404;2023-05-07T03:43:10;2.25;;;1.38;;
41881;SDS011;27562;47.524;12.404;2023-05-07T03:45:36;2.75;;;1.45;;
41881;SDS011;27562;47.524;12.404;2023-05-07T03:48:02;2.58;;;1.75;;
41881;SDS011;27562;47.524;12.404;2023-05-07T03:50:27;7.32;;;2.22;;
41881;SDS011;27562;47.524;12.404;2023-05-07T03:52:53;5.95;;;3.20;;
41881;SDS011;27562;47.524;12.404;2023-05-07T03:55:19;5.03;;;2.10;;
41881;SDS011;27562;47.524;12.404;2023-05-07T03:57:44;5.10;;;2.10;;
41881;SDS011;27562;47.524;12.404;2023-05-07T04:00:10;2.47;;;1.67;;
41881;SDS011;27562;47.524;12.404;2023-05-07T04:02:37;5.07;;;1.70;;
41881;SDS011;27562;47.524;12.404;2023-05-07T04:05:02;3.78;;;1.75;;
41881;SDS011;27562;47.524;12.404;2023-05-07T04:07:28;2.38;;;1.58;;
41881;SDS011;27562;47.524;12.404;2023-05-07T04:09:54;2.95;;;1.52;;
41881;SDS011;27562;47.524;12.404;2023-05-07T04:12:19;3.35;;;1.67;;
41881;SDS011;27562;47.524;12.404;2023-05-07T04:14:45;2.72;;;1.83;;
41881;SDS011;27562;47.524;12.404;2023-05-07T04:17:11;4.45;;;1.65;;
41881;SDS011;27562;47.524;12.404;2023-05-07T04:19:37;3.53;;;1.75;;
41881;SDS011;27562;47.524;12.404;2023-05-07T04:22:02;2.75;;;1.80;;
41881;SDS011;27562;47.524;12.404;2023-05-07T04:24:30;2.30;;;1.60;;
41881;SDS011;27562;47.524;12.404;2023-05-07T04:26:58;3.70;;;1.55;;
41881;SDS011;27562;47.524;12.404;2023-05-07T04:29:23;3.03;;;1.55;;
41881;SDS011;27562;47.524;12.404;2023-05-07T04:31:49;2.33;;;1.45;;
41881;SDS011;27562;47.524;12.404;2023-05-07T04:34:15;2.00;;;1.27;;
41881;SDS011;27562;47.524;12.404;2023-05-07T04:36:41;2.08;;;1.33;;
41881;SDS011;27562;47.524;12.404;2023-05-07T04:39:07;3.40;;;2.00;;
41881;SDS011;27562;47.524;12.404;2023-05-07T04:41:33;3.20;;;1.40;;
41881;SDS011;27562;47.524;12.404;2023-05-07T04:44:01;2.35;;;1.50;;
41881;SDS011;27562;47.524;12.404;2023-05-07T04:46:28;1.95;;;1.20;;
41881;SDS011;27562;47.524;12.404;2023-05-07T04:48:54;1.52;;;1.13;;
41881;SDS011;27562;47.524;12.404;2023-05-07T04:51:20;3.60;;;1.70;;
41881;SDS011;27562;47.524;12.404;2023-05-07T04:53:46;3.28;;;1.67;;
41881;SDS011;27562;47.524;12.404;2023-05-07T04:56:11;2.35;;;1.30;;
41881;SDS011;27562;47.524;12.404;2023-05-07T04:58:37;3.30;;;1.65;;
41881;SDS011;27562;47.524;12.404;2023-05-07T05:01:03;2.80;;;1.80;;
41881;SDS011;27562;47.524;12.404;2023-05-07T05:03:29;2.58;;;1.80;;
41881;SDS011;27562;47.524;12.404;2023-05-07T05:05:55;2.17;;;1.38;;
41881;SDS011;27562;47.524;12.404;2023-05-07T05:08:22;2.03;;;1.45;;
41881;SDS011;27562;47.524;12.404;2023-05-07T05:10:47;2.85;;;1.48;;
41881;SDS011;27562;47.524;12.404;2023-05-07T05:13:14;3.75;;;1.60;;
41881;SDS011;27562;47.524;12.404;2023-05-07T05:15:40;2.75;;;1.60;;
41881;SDS011;27562;47.524;12.404;2023-05-07T05:18:06;2.35;;;1.52;;
41881;SDS011;27562;47.524;12.404;2023-05-07T05:20:32;2.53;;;1.60;;
41881;SDS011;27562;47.524;12.404;2023-05-07T05:22:58;2.53;;;1.45;;
41881;SDS011;27562;47.524;12.404;2023-05-07T05:25:23;3.88;;;1.80;;
41881;SDS011;27562;47.524;12.404;2023-05-07T05:27:49;2.70;;;1.60;;
41881;SDS011;27562;47.524;12.404;2023-05-07T05:30:15;2.83;;;1.55;;
41881;SDS011;27562;47.524;12.404;2023-05-07T05:32:40;3.17;;;2.00;;
41881;SDS011;27562;47.524;12.404;2023-05-07T05:35:06;4.68;;;1.90;;
41881;SDS011;27562;47.524;12.404;2023-05-07T05:37:32;4.45;;;1.60;;
41881;SDS011;27562;47.524;12.404;2023-05-07T05:39:58;3.13;;;1.98;;
41881;SDS011;27562;47.524;12.404;2023-05-07T05:42:24;3.20;;;2.05;;
41881;SDS011;27562;47.524;12.404;2023-05-07T05:44:49;3.65;;;1.77;;
41881;SDS011;27562;47.524;12.404;2023-05-07T05:47:15;6.65;;;3.08;;
41881;SDS011;27562;47.524;12.404;2023-05-07T05:49:41;5.70;;;3.22;;
41881;SDS011;27562;47.524;12.404;2023-05-07T05:52:08;7.32;;;3.72;;
41881;SDS011;27562;47.524;12.404;2023-05-07T05:54:34;8.23;;;3.63;;
41881;SDS011;27562;47.524;12.404;2023-05-07T05:56:59;6.45;;;3.17;;
41881;SDS011;27562;47.524;12.404;2023-05-07T05:59:25;6.80;;;3.42;;
41881;SDS011;27562;47.524;12.404;2023-05-07T06:01:51;6.65;;;3.50;;
41881;SDS011;27562;47.524;12.404;2023-05-07T06:04:16;4.82;;;3.10;;
41881;SDS011;27562;47.524;12.404;2023-05-07T06:06:42;7.30;;;3.65;;
41881;SDS011;27562;47.524;12.404;2023-05-07T06:09:08;7.20;;;3.60;;
41881;SDS011;27562;47.524;12.404;2023-05-07T06:11:33;6.60;;;3.42;;
41881;SDS011;27562;47.524;12.404;2023-05-07T06:13:59;6.43;;;3.40;;
41881;SDS011;27562;47.524;12.404;2023-05-07T06:16:24;4.53;;;3.10;;
41881;SDS011;27562;47.524;12.404;2023-05-07T06:18:50;4.57;;;3.40;;
41881;SDS011;27562;47.524;12.404;2023-05-07T06:21:16;5.65;;;3.38;;
41881;SDS011;27562;47.524;12.404;2023-05-07T06:23:41;6.00;;;3.65;;
41881;SDS011;27562;47.524;12.404;2023-05-07T06:26:07;4.18;;;2.92;;
41881;SDS011;27562;47.524;12.404;2023-05-07T06:28:33;8.07;;;3.50;;
41881;SDS011;27562;47.524;12.404;2023-05-07T06:31:11;5.15;;;3.03;;
41881;SDS011;27562;47.524;12.404;2023-05-07T06:33:41;5.35;;;3.15;;
41881;SDS011;27562;47.524;12.404;2023-05-07T06:36:07;6.20;;;4.05;;
41881;SDS011;27562;47.524;12.404;2023-05-07T06:38:33;6.35;;;3.78;;
41881;SDS011;27562;47.524;12.404;2023-05-07T06:40:59;5.15;;;3.58;;
41881;SDS011;27562;47.524;12.404;2023-05-07T06:43:24;6.80;;;3.75;;
41881;SDS011;27562;47.524;12.404;2023-05-07T06:45:50;5.43;;;3.08;;
41881;SDS011;27562;47.524;12.404;2023-05-07T06:48:15;4.25;;;3.08;;
41881;SDS011;27562;47.524;12.404;2023-05-07T06:50:41;4.15;;;3.22;;
41881;SDS011;27562;47.524;12.404;2023-05-07T06:53:07;5.85;;;3.70;;
41881;SDS011;27562;47.524;12.404;2023-05-07T06:55:33;4.95;;;3.42;;
41881;SDS011;27562;47.524;12.404;2023-05-07T06:57:58;4.47;;;3.75;;
41881;SDS011;27562;47.524;12.404;2023-05-07T07:00:26;5.90;;;4.15;;
41881;SDS011;27562;47.524;12.404;2023-05-07T07:02:53;6.00;;;3.50;;
41881;SDS011;27562;47.524;12.404;2023-05-07T07:05:19;6.30;;;4.20;;
41881;SDS011;27562;47.524;12.404;2023-05-07T07:07:45;5.30;;;3.78;;
41881;SDS011;27562;47.524;12.404;2023-05-07T07:10:18;5.05;;;3.03;;
41881;SDS011;27562;47.524;12.404;2023-05-07T07:12:44;2.95;;;2.20;;
41881;SDS011;27562;47.524;12.404;2023-05-07T07:15:10;4.55;;;2.90;;
41881;SDS011;27562;47.524;12.404;2023-05-07T07:17:36;5.15;;;2.80;;
41881;SDS011;27562;47.524;12.404;2023-05-07T07:20:02;5.65;;;3.10;;
41881;SDS011;27562;47.524;12.404;2023-05-07T07:22:28;3.40;;;2.45;;
41881;SDS011;27562;47.524;12.404;2023-05-07T07:24:54;5.35;;;2.90;;
41881;SDS011;27562;47.524;12.404;2023-05-07T07:27:20;4.70;;;3.42;;
41881;SDS011;27562;47.524;12.404;2023-05-07T07:29:45;4.85;;;3.22;;
41881;SDS011;27562;47.524;12.404;2023-05-07T07:32:11;3.63;;;2.58;;
41881;SDS011;27562;47.524;12.404;2023-05-07T07:34:37;4.53;;;3.05;;
41881;SDS011;27562;47.524;12.404;2023-05-07T07:37:02;4.78;;;2.70;;
41881;SDS011;27562;47.524;12.404;2023-05-07T07:39:31;5.40;;;2.58;;
41881;SDS011;27562;47.524;12.404;2023-05-07T07:41:57;7.20;;;3.33;;
41881;SDS011;27562;47.524;12.404;2023-05-07T07:44:23;3.78;;;2.47;;
41881;SDS011;27562;47.524;12.404;2023-05-07T07:46:48;5.25;;;2.20;;
41881;SDS011;27562;47.524;12.404;2023-05-07T07:49:15;3.00;;;1.90;;
41881;SDS011;27562;47.524;12.404;2023-05-07T07:51:41;4.15;;;2.42;;
41881;SDS011;27562;47.524;12.404;2023-05-07T07:54:07;5.88;;;2.42;;
41881;SDS011;27562;47.524;12.404;2023-05-07T07:56:33;3.97;;;2.15;;
41881;SDS011;27562;47.524;12.404;2023-05-07T07:58:59;2.72;;;1.65;;
41881;SDS011;27562;47.524;12.404;2023-05-07T08:01:25;3.60;;;1.80;;
41881;SDS011;27562;47.524;12.404;2023-05-07T08:03:51;4.18;;;1.80;;
41881;SDS011;27562;47.524;12.404;2023-05-07T08:06:17;3.70;;;1.80;;
41881;SDS011;27562;47.524;12.404;2023-05-07T08:08:43;3.40;;;1.90;;
41881;SDS011;27562;47.524;12.404;2023-05-07T08:11:08;3.45;;;1.58;;
41881;SDS011;27562;47.524;12.404;2023-05-07T08:13:35;3.90;;;1.80;;
41881;SDS011;27562;47.524;12.404;2023-05-07T08:16:01;3.95;;;1.63;;
41881;SDS011;27562;47.524;12.404;2023-05-07T08:18:27;3.22;;;1.60;;
41881;SDS011;27562;47.524;12.404;2023-05-07T08:20:54;5.22;;;1.80;;
41881;SDS011;27562;47.524;12.404;2023-05-07T08:23:20;3.83;;;1.80;;
41881;SDS011;27562;47.524;12.404;2023-05-07T08:25:46;4.43;;;1.80;;
41881;SDS011;27562;47.524;12.404;2023-05-07T08:28:13;4.53;;;1.35;;
41881;SDS011;27562;47.524;12.404;2023-05-07T08:30:38;2.78;;;1.83;;
41881;SDS011;27562;47.524;12.404;2023-05-07T08:33:04;3.83;;;1.48;;
41881;SDS011;27562;47.524;12.404;2023-05-07T08:35:30;3.22;;;1.58;;
41881;SDS011;27562;47.524;12.404;2023-05-07T08:37:55;2.83;;;1.38;;
41881;SDS011;27562;47.524;12.404;2023-05-07T08:40:23;3.13;;;1.13;;
41881;SDS011;27562;47.524;12.404;2023-05-07T08:42:52;6.10;;;1.50;;
41881;SDS011;27562;47.524;12.404;2023-05-07T08:45:18;3.45;;;1.58;;
41881;SDS011;27562;47.524;12.404;2023-05-07T08:47:52;4.65;;;1.70;;
41881;SDS011;27562;47.524;12.404;2023-05-07T08:50:23;2.13;;;1.23;;
41881;SDS011;27562;47.524;12.404;2023-05-07T08:52:49;1.98;;;1.20;;
41881;SDS011;27562;47.524;12.404;2023-05-07T08:55:15;2.75;;;1.33;;
41881;SDS011;27562;47.524;12.404;2023-05-07T08:57:40;2.63;;;1.33;;
41881;SDS011;27562;47.524;12.404;2023-05-07T09:00:06;3.35;;;1.60;;
41881;SDS011;27562;47.524;12.404;2023-05-07T09:02:33;4.15;;;1.48;;
41881;SDS011;27562;47.524;12.404;2023-05-07T09:05:01;2.95;;;1.40;;
41881;SDS011;27562;47.524;12.404;2023-05-07T09:07:27;3.67;;;1.50;;
41881;SDS011;27562;47.524;12.404;2023-05-07T09:09:53;2.65;;;1.20;;
41881;SDS011;27562;47.524;12.404;2023-05-07T09:12:22;2.10;;;1.13;;
41881;SDS011;27562;47.524;12.404;2023-05-07T09:14:48;2.58;;;1.00;;
41881;SDS011;27562;47.524;12.404;2023-05-07T09:17:17;1.73;;;1.10;;
41881;SDS011;27562;47.524;12.404;2023-05-07T09:19:43;1.75;;;1.05;;
41881;SDS011;27562;47.524;12.404;2023-05-07T09:22:13;3.67;;;1.08;;
41881;SDS011;27562;47.524;12.404;2023-05-07T09:24:39;4.35;;;1.00;;
41881;SDS011;27562;47.524;12.404;2023-05-07T09:27:05;2.60;;;1.10;;
41881;SDS011;27562;47.524;12.404;2023-05-07T09:29:33;1.95;;;0.90;;
41881;SDS011;27562;47.524;12.404;2023-05-07T09:32:02;2.65;;;1.10;;
41881;SDS011;27562;47.524;12.404;2023-05-07T09:34:30;4.28;;;1.20;;
41881;SDS011;27562;47.524;12.404;2023-05-07T09:36:55;1.75;;;1.08;;
41881;SDS011;27562;47.524;12.404;2023-05-07T09:39:23;2.05;;;1.10;;
41881;SDS011;27562;47.524;12.404;2023-05-07T09:41:50;2.67;;;1.30;;
41881;SDS011;27562;47.524;12.404;2023-05-07T09:44:19;2.72;;;1.00;;
41881;SDS011;27562;47.524;12.404;2023-05-07T09:46:45;2.78;;;1.10;;
41881;SDS011;27562;47.524;12.404;2023-05-07T09:49:18;1.25;;;0.90;;
41881;SDS011;27562;47.524;12.404;2023-05-07T09:51:50;2.72;;;1.00;;
41881;SDS011;27562;47.524;12.404;2023-05-07T09:54:17;2.30;;;1.08;;
41881;SDS011;27562;47.524;12.404;2023-05-07T09:56:44;2.17;;;1.20;;
41881;SDS011;27562;47.524;12.404;2023-05-07T09:59:15;2.22;;;1.23;;
41881;SDS011;27562;47.524;12.404;2023-05-07T10:01:42;1.83;;;1.10;;
41881;SDS011;27562;47.524;12.404;2023-05-07T10:04:09;5.20;;;1.20;;
41881;SDS011;27562;47.524;12.404;2023-05-07T10:06:35;2.72;;;1.13;;
41881;SDS011;27562;47.524;12.404;2023-05-07T10:09:03;2.28;;;1.23;;
41881;SDS011;27562;47.524;12.404;2023-05-07T10:11:32;2.80;;;1.15;;
41881;SDS011;27562;47.524;12.404;2023-05-07T10:14:02;4.85;;;1.23;;
41881;SDS011;27562;47.524;12.404;2023-05-07T10:16:31;3.40;;;1.27;;
41881;SDS011;27562;47.524;12.404;2023-05-07T10:19:02;2.53;;;1.30;;
41881;SDS011;27562;47.524;12.404;2023-05-07T10:21:29;2.15;;;1.20;;
41881;SDS011;27562;47.524;12.404;2023-05-07T11:07:31;1.80;;;0.80;;
41881;SDS011;27562;47.524;12.404;2023-05-07T11:10:04;2.00;;;0.90;;
41881;SDS011;27562;47.524;12.404;2023-05-07T11:15:09;2.60;;;0.80;;
41881;SDS011;27562;47.524;12.404;2023-05-07T11:17:55;1.65;;;0.70;;
41881;SDS011;27562;47.524;12.404;2023-05-07T11:23:45;3.10;;;1.30;;
41881;SDS011;27562;47.524;12.404;2023-05-07T11:26:04;2.40;;;0.80;;
41881;SDS011;27562;47.524;12.404;2023-05-07T12:00:35;2.90;;;1.10;;
41881;SDS011;27562;47.524;12.404;2023-05-07T12:20:07;3.10;;;1.27;;
41881;SDS011;27562;47.524;12.404;2023-05-07T17:05:21;2.13;;;1.10;;
41881;SDS011;27562;47.524;12.404;2023-05-07T17:07:47;2.38;;;1.10;;
41881;SDS011;27562;47.524;12.404;2023-05-07T17:10:12;2.05;;;1.20;;
41881;SDS011;27562;47.524;12.404;2023-05-07T17:12:38;2.63;;;1.33;;
41881;SDS011;27562;47.524;12.404;2023-05-07T17:15:04;3.63;;;1.30;;
41881;SDS011;27562;47.524;12.404;2023-05-07T17:17:30;3.97;;;1.27;;
41881;SDS011;27562;47.524;12.404;2023-05-07T17:19:56;2.15;;;1.30;;
41881;SDS011;27562;47.524;12.404;2023-05-07T17:22:23;3.03;;;1.50;;
41881;SDS011;27562;47.524;12.404;2023-05-07T17:24:50;2.47;;;1.38;;
41881;SDS011;27562;47.524;12.404;2023-05-07T17:27:16;3.20;;;1.52;;
41881;SDS011;27562;47.524;12.404;2023-05-07T17:29:41;2.20;;;1.30;;
41881;SDS011;27562;47.524;12.404;2023-05-07T17:32:07;3.50;;;1.40;;
41881;SDS011;27562;47.524;12.404;2023-05-07T17:34:33;3.80;;;1.60;;
41881;SDS011;27562;47.524;12.404;2023-05-07T17:36:59;2.15;;;1.30;;
41881;SDS011;27562;47.524;12.404;2023-05-07T17:39:24;2.97;;;1.30;;
41881;SDS011;27562;47.524;12.404;2023-05-07T17:41:50;3.08;;;1.25;;
41881;SDS011;27562;47.524;12.404;2023-05-07T17:44:16;1.80;;;1.20;;
41881;SDS011;27562;47.524;12.404;2023-05-07T17:46:42;2.08;;;1.33;;
41881;SDS011;27562;47.524;12.404;2023-05-07T17:49:08;2.83;;;1.50;;
41881;SDS011;27562;47.524;12.404;2023-05-07T17:51:34;2.75;;;1.45;;
41881;SDS011;27562;47.524;12.404;2023-05-07T17:53:59;3.58;;;1.60;;
41881;SDS011;27562;47.524;12.404;2023-05-07T17:56:25;2.90;;;1.42;;
41881;SDS011;27562;47.524;12.404;2023-05-07T17:58:51;2.70;;;1.30;;
41881;SDS011;27562;47.524;12.404;2023-05-07T18:01:18;3.03;;;1.45;;
41881;SDS011;27562;47.524;12.404;2023-05-07T18:03:44;3.75;;;1.50;;
41881;SDS011;27562;47.524;12.404;2023-05-07T18:06:10;3.65;;;1.60;;
41881;SDS011;27562;47.524;12.404;2023-05-07T18:08:41;3.17;;;1.60;;
41881;SDS011;27562;47.524;12.404;2023-05-07T18:11:08;2.95;;;1.58;;
41881;SDS011;27562;47.524;12.404;2023-05-07T18:13:33;2.67;;;1.30;;
41881;SDS011;27562;47.524;12.404;2023-05-07T18:15:59;5.70;;;1.52;;
41881;SDS011;27562;47.524;12.404;2023-05-07T18:18:25;2.95;;;1.70;;
41881;SDS011;27562;47.524;12.404;2023-05-07T18:20:54;3.22;;;1.80;;
41881;SDS011;27562;47.524;12.404;2023-05-07T18:23:21;4.70;;;1.50;;
41881;SDS011;27562;47.524;12.404;2023-05-07T18:25:46;3.10;;;1.88;;
41881;SDS011;27562;47.524;12.404;2023-05-07T18:28:12;2.33;;;1.67;;
41881;SDS011;27562;47.524;12.404;2023-05-07T18:30:38;3.45;;;2.10;;
41881;SDS011;27562;47.524;12.404;2023-05-07T18:33:04;2.67;;;1.80;;
41881;SDS011;27562;47.524;12.404;2023-05-07T18:35:30;2.83;;;1.40;;
41881;SDS011;27562;47.524;12.404;2023-05-07T18:37:56;3.75;;;1.83;;
41881;SDS011;27562;47.524;12.404;2023-05-07T18:40:22;4.95;;;2.08;;
41881;SDS011;27562;47.524;12.404;2023-05-07T18:42:47;3.72;;;1.70;;
41881;SDS011;27562;47.524;12.404;2023-05-07T18:45:13;2.90;;;1.65;;
41881;SDS011;27562;47.524;12.404;2023-05-07T18:47:39;4.55;;;2.10;;
41881;SDS011;27562;47.524;12.404;2023-05-07T18:50:05;4.55;;;2.45;;
41881;SDS011;27562;47.524;12.404;2023-05-07T18:52:31;3.60;;;2.10;;
41881;SDS011;27562;47.524;12.404;2023-05-07T18:54:57;2.97;;;1.65;;
41881;SDS011;27562;47.524;12.404;2023-05-07T18:57:22;4.40;;;2.17;;
41881;SDS011;27562;47.524;12.404;2023-05-07T18:59:50;5.90;;;3.17;;
41881;SDS011;27562;47.524;12.404;2023-05-07T19:02:17;5.90;;;2.83;;
41881;SDS011;27562;47.524;12.404;2023-05-07T19:04:43;4.40;;;2.97;;
41881;SDS011;27562;47.524;12.404;2023-05-07T19:07:08;4.32;;;2.08;;
41881;SDS011;27562;47.524;12.404;2023-05-07T19:09:34;7.07;;;1.95;;
41881;SDS011;27562;47.524;12.404;2023-05-07T19:12:00;3.47;;;1.80;;
41881;SDS011;27562;47.524;12.404;2023-05-07T19:14:26;3.53;;;1.60;;
41881;SDS011;27562;47.524;12.404;2023-05-07T19:16:51;4.10;;;1.58;;
41881;SDS011;27562;47.524;12.404;2023-05-07T19:19:17;5.40;;;1.90;;
41881;SDS011;27562;47.524;12.404;2023-05-07T19:21:43;3.78;;;2.05;;
41881;SDS011;27562;47.524;12.404;2023-05-07T19:24:09;2.75;;;1.77;;
41881;SDS011;27562;47.524;12.404;2023-05-07T19:26:34;4.18;;;1.80;;
41881;SDS011;27562;47.524;12.404;2023-05-07T19:29:00;5.78;;;2.22;;
41881;SDS011;27562;47.524;12.404;2023-05-07T19:31:26;4.88;;;1.83;;
41881;SDS011;27562;47.524;12.404;2023-05-07T19:33:52;3.97;;;1.70;;
41881;SDS011;27562;47.524;12.404;2023-05-07T19:36:18;4.15;;;2.08;;
41881;SDS011;27562;47.524;12.404;2023-05-07T19:38:44;4.25;;;1.80;;
41881;SDS011;27562;47.524;12.404;2023-05-07T19:41:11;3.10;;;2.00;;
41881;SDS011;27562;47.524;12.404;2023-05-07T19:43:37;2.83;;;1.83;;
41881;SDS011;27562;47.524;12.404;2023-05-07T19:46:03;5.82;;;1.95;;
41881;SDS011;27562;47.524;12.404;2023-05-07T19:48:30;2.90;;;1.90;;
41881;SDS011;27562;47.524;12.404;2023-05-07T19:50:56;3.50;;;1.90;;
41881;SDS011;27562;47.524;12.404;2023-05-07T19:53:23;2.97;;;2.10;;
41881;SDS011;27562;47.524;12.404;2023-05-07T19:55:49;3.92;;;1.80;;
41881;SDS011;27562;47.524;12.404;2023-05-07T19:58:23;3.33;;;1.77;;
41881;SDS011;27562;47.524;12.404;2023-05-07T20:00:49;2.97;;;1.67;;
41881;SDS011;27562;47.524;12.404;2023-05-07T20:03:14;4.78;;;1.70;;
41881;SDS011;27562;47.524;12.404;2023-05-07T20:05:44;2.17;;;1.40;;
41881;SDS011;27562;47.524;12.404;2023-05-07T20:08:11;2.58;;;1.50;;
41881;SDS011;27562;47.524;12.404;2023-05-07T20:10:37;3.58;;;1.40;;
41881;SDS011;27562;47.524;12.404;2023-05-07T20:13:02;3.05;;;1.50;;
41881;SDS011;27562;47.524;12.404;2023-05-07T20:15:28;2.22;;;1.40;;
41881;SDS011;27562;47.524;12.404;2023-05-07T20:17:53;3.58;;;1.65;;
41881;SDS011;27562;47.524;12.404;2023-05-07T20:20:19;1.95;;;1.42;;
41881;SDS011;27562;47.524;12.404;2023-05-07T20:22:45;2.30;;;1.42;;
41881;SDS011;27562;47.524;12.404;2023-05-07T20:25:11;2.53;;;1.48;;
41881;SDS011;27562;47.524;12.404;2023-05-07T20:27:40;2.63;;;1.33;;
41881;SDS011;27562;47.524;12.404;2023-05-07T20:30:06;2.40;;;1.55;;
41881;SDS011;27562;47.524;12.404;2023-05-07T20:32:32;3.85;;;1.35;;
41881;SDS011;27562;47.524;12.404;2023-05-07T20:34:58;2.85;;;1.50;;
41881;SDS011;27562;47.524;12.404;2023-05-07T20:37:24;2.60;;;1.65;;
41881;SDS011;27562;47.524;12.404;2023-05-07T20:39:50;2.33;;;1.52;;
41881;SDS011;27562;47.524;12.404;2023-05-07T20:42:16;2.88;;;1.65;;
41881;SDS011;27562;47.524;12.404;2023-05-07T20:44:42;2.70;;;1.50;;
41881;SDS011;27562;47.524;12.404;2023-05-07T20:47:08;2.88;;;1.80;;
41881;SDS011;27562;47.524;12.404;2023-05-07T20:49:34;4.05;;;1.60;;